Time;durP1;ratioP1;P1;durP2;ratioP2;P2;SDS_P1;SDS_P2;PMS_P1;PMS_P2;Temp;Humidity;BMP_temperature;BMP_pressure;BME280_temperature;BME280_humidity;BME280_pressure;Samples;Min_cycle;Max_cycle;Signal;HPM_P1;HPM_P2
2022/04/17 00:01:07;;;;;;;4.75;2.90;;;;;;;;;;4986269;28;20423;-70
2022/04/17 00:03:52;;;;;;;9.77;3.78;;;;;;;;;;4986134;28;20109;-69
2022/04/17 00:06:37;;;;;;;6.85;3.35;;;;;;;;;;5009438;28;20373;-72
2022/04/17 00:09:23;;;;;;;5.60;2.88;;;;;;;;;;5010390;28;20069;-72
2022/04/17 00:12:09;;;;;;;4.38;2.90;;;;;;;;;;4994851;28;20034;-68
2022/04/17 00:14:55;;;;;;;6.30;2.83;;;;;;;;;;4999674;28;20030;-70
2022/04/17 00:17:43;;;;;;;8.55;2.85;;;;;;;;;;4989538;28;20035;-70
2022/04/17 00:20:29;;;;;;;4.72;2.85;;;;;;;;;;4989830;28;20046;-70
2022/04/17 00:23:14;;;;;;;8.18;3.22;;;;;;;;;;5010047;28;20041;-72
2022/04/17 00:25:59;;;;;;;7.00;3.10;;;;;;;;;;4984175;28;20026;-71
2022/04/17 00:28:45;;;;;;;4.88;2.95;;;;;;;;;;4976127;28;20034;-75
2022/04/17 00:31:30;;;;;;;6.93;2.95;;;;;;;;;;4998058;28;20072;-69
2022/04/17 00:34:15;;;;;;;4.13;3.35;;;;;;;;;;4988338;28;20018;-70
2022/04/17 00:37:00;;;;;;;4.50;2.72;;;;;;;;;;5003675;28;20386;-70
2022/04/17 00:39:46;;;;;;;5.68;3.63;;;;;;;;;;4970974;28;20050;-70
2022/04/17 00:42:31;;;;;;;6.20;2.80;;;;;;;;;;4994469;28;20116;-70
2022/04/17 00:45:16;;;;;;;5.57;3.10;;;;;;;;;;4979908;28;20048;-70
2022/04/17 00:48:02;;;;;;;6.82;3.20;;;;;;;;;;4986369;28;20121;-69
2022/04/17 00:50:48;;;;;;;4.50;2.47;;;;;;;;;;4984245;28;20076;-71
2022/04/17 00:53:34;;;;;;;7.93;3.13;;;;;;;;;;4998365;28;20042;-73
2022/04/17 00:56:22;;;;;;;5.47;2.70;;;;;;;;;;4984080;28;20023;-72
2022/04/17 00:59:10;;;;;;;7.03;3.15;;;;;;;;;;4973261;28;20107;-71
2022/04/17 01:01:56;;;;;;;5.80;3.55;;;;;;;;;;4986324;28;20368;-71
2022/04/17 01:04:41;;;;;;;5.18;2.92;;;;;;;;;;4990190;28;20421;-72
2022/04/17 01:07:27;;;;;;;5.70;2.70;;;;;;;;;;4980158;28;20033;-69
2022/04/17 01:10:12;;;;;;;10.13;4.65;;;;;;;;;;4978935;28;20368;-74
2022/04/17 01:12:58;;;;;;;6.85;3.30;;;;;;;;;;4994929;28;20405;-72
2022/04/17 01:15:44;;;;;;;5.53;3.15;;;;;;;;;;4989942;28;20366;-70
2022/04/17 01:18:29;;;;;;;9.45;3.60;;;;;;;;;;5002011;28;20034;-70
2022/04/17 01:21:17;;;;;;;7.43;3.00;;;;;;;;;;4980250;28;20578;-70
2022/04/17 01:27:07;;;;;;;6.07;3.20;;;;;;;;;;5001978;28;20486;-69
2022/04/17 01:29:53;;;;;;;7.68;3.05;;;;;;;;;;5012209;28;20113;-70
2022/04/17 01:32:50;;;;;;;6.15;2.85;;;;;;;;;;5000828;28;20030;-68
2022/04/17 01:35:35;;;;;;;4.65;2.90;;;;;;;;;;4983831;28;20386;-70
2022/04/17 01:38:21;;;;;;;5.55;2.80;;;;;;;;;;4985923;28;20023;-69
2022/04/17 01:41:06;;;;;;;6.18;3.08;;;;;;;;;;4989520;28;20032;-70
2022/04/17 01:43:51;;;;;;;4.30;2.72;;;;;;;;;;4975461;28;20034;-72
2022/04/17 01:46:36;;;;;;;7.00;3.00;;;;;;;;;;4980445;28;20054;-73
2022/04/17 01:49:23;;;;;;;4.38;2.78;;;;;;;;;;4978768;28;20434;-70
2022/04/17 01:52:08;;;;;;;6.05;2.72;;;;;;;;;;4970328;28;20026;-71
2022/04/17 01:54:54;;;;;;;4.35;2.83;;;;;;;;;;4992377;28;20501;-70
2022/04/17 01:57:39;;;;;;;4.97;2.70;;;;;;;;;;4974311;28;20042;-70
2022/04/17 02:00:25;;;;;;;5.40;3.05;;;;;;;;;;4974502;28;20077;-71
2022/04/17 02:03:10;;;;;;;5.78;3.20;;;;;;;;;;4998660;28;20039;-70
2022/04/17 02:05:56;;;;;;;6.25;3.25;;;;;;;;;;4998492;28;20047;-73
2022/04/17 02:08:42;;;;;;;11.55;2.97;;;;;;;;;;4975791;28;20026;-73
2022/04/17 02:11:27;;;;;;;7.30;3.22;;;;;;;;;;4972023;28;20039;-71
2022/04/17 02:14:13;;;;;;;6.70;3.17;;;;;;;;;;4993282;28;20033;-72
2022/04/17 02:16:58;;;;;;;5.25;3.53;;;;;;;;;;4971557;28;20033;-70
2022/04/17 02:19:44;;;;;;;6.05;3.17;;;;;;;;;;4983495;28;20055;-72
2022/04/17 02:22:30;;;;;;;5.00;2.95;;;;;;;;;;4974053;28;20034;-71
2022/04/17 02:25:16;;;;;;;7.30;3.85;;;;;;;;;;4986399;28;20022;-71
2022/04/17 02:28:01;;;;;;;8.07;3.75;;;;;;;;;;4986649;28;20598;-72
2022/04/17 02:30:46;;;;;;;6.80;3.30;;;;;;;;;;4986399;28;20018;-71
2022/04/17 02:33:31;;;;;;;6.13;3.15;;;;;;;;;;5009048;28;20054;-72
2022/04/17 02:36:17;;;;;;;6.00;3.28;;;;;;;;;;5007421;28;20103;-71
2022/04/17 02:39:02;;;;;;;6.10;3.30;;;;;;;;;;5001470;28;20485;-73
2022/04/17 02:41:47;;;;;;;4.40;2.90;;;;;;;;;;4996150;28;20027;-71
2022/04/17 02:44:33;;;;;;;7.28;3.03;;;;;;;;;;4995937;28;20096;-71
2022/04/17 02:50:23;;;;;;;7.43;2.95;;;;;;;;;;4973378;28;20403;-70
2022/04/17 02:53:08;;;;;;;6.25;3.85;;;;;;;;;;5004546;28;20073;-70
2022/04/17 02:55:53;;;;;;;4.55;3.00;;;;;;;;;;4977085;28;20023;-75
2022/04/17 02:58:38;;;;;;;5.22;3.35;;;;;;;;;;4980442;28;20037;-70
2022/04/17 03:07:34;;;;;;;6.22;3.40;;;;;;;;;;4994662;28;20022;-70
2022/04/17 03:10:19;;;;;;;4.45;2.78;;;;;;;;;;4979003;28;20458;-72
2022/04/17 03:13:05;;;;;;;6.30;3.00;;;;;;;;;;5002029;28;20041;-71
2022/04/17 03:15:50;;;;;;;5.50;3.03;;;;;;;;;;4984098;28;20030;-75
2022/04/17 03:18:35;;;;;;;6.70;3.80;;;;;;;;;;5020007;28;20049;-73
2022/04/17 03:21:20;;;;;;;4.63;2.95;;;;;;;;;;4984274;28;20035;-71
2022/04/17 03:24:06;;;;;;;7.20;3.40;;;;;;;;;;4987975;28;20168;-71
2022/04/17 03:26:51;;;;;;;4.22;2.90;;;;;;;;;;4981116;28;20517;-71
2022/04/17 03:29:36;;;;;;;6.90;3.75;;;;;;;;;;5022390;28;20481;-74
2022/04/17 03:32:21;;;;;;;6.45;3.83;;;;;;;;;;5011448;28;20026;-72
2022/04/17 03:35:07;;;;;;;6.78;3.83;;;;;;;;;;4998132;28;20029;-70
2022/04/17 03:37:53;;;;;;;5.88;3.70;;;;;;;;;;4993235;28;20110;-69
2022/04/17 03:40:38;;;;;;;6.60;3.80;;;;;;;;;;4959968;28;20034;-69
2022/04/17 03:43:24;;;;;;;5.55;3.50;;;;;;;;;;4989437;28;20034;-69
2022/04/17 03:46:09;;;;;;;5.70;3.22;;;;;;;;;;4978353;28;20284;-69
2022/04/17 03:48:54;;;;;;;6.53;3.20;;;;;;;;;;4991236;28;20041;-70
2022/04/17 03:51:39;;;;;;;6.07;3.30;;;;;;;;;;4972603;28;20368;-70
2022/04/17 03:54:25;;;;;;;5.80;3.58;;;;;;;;;;5018600;28;20063;-72
2022/04/17 03:57:10;;;;;;;5.68;3.47;;;;;;;;;;5003141;28;20030;-72
2022/04/17 03:59:55;;;;;;;6.25;3.92;;;;;;;;;;4983654;28;20026;-71
2022/04/17 04:02:41;;;;;;;9.68;3.72;;;;;;;;;;4990804;28;20038;-72
2022/04/17 04:05:26;;;;;;;5.90;4.05;;;;;;;;;;5017751;28;20041;-73
2022/04/17 04:08:11;;;;;;;6.32;3.42;;;;;;;;;;4995250;28;20041;-71
2022/04/17 04:10:57;;;;;;;8.25;3.80;;;;;;;;;;4988561;28;20026;-69
2022/04/17 04:13:42;;;;;;;7.45;4.20;;;;;;;;;;4959534;28;20033;-71
2022/04/17 04:16:27;;;;;;;6.20;4.07;;;;;;;;;;5003117;28;20372;-72
2022/04/17 04:19:13;;;;;;;5.97;3.92;;;;;;;;;;4982452;28;20137;-73
2022/04/17 04:21:59;;;;;;;6.85;3.92;;;;;;;;;;5002365;28;20050;-71
2022/04/17 04:24:44;;;;;;;6.75;3.90;;;;;;;;;;4985579;28;20516;-70
2022/04/17 04:30:33;;;;;;;5.72;3.50;;;;;;;;;;5004521;28;20026;-74
2022/04/17 04:33:18;;;;;;;6.45;3.80;;;;;;;;;;4990695;28;20471;-70
2022/04/17 04:36:04;;;;;;;6.90;3.78;;;;;;;;;;4994071;28;20030;-72
2022/04/17 04:38:49;;;;;;;7.18;4.10;;;;;;;;;;5002894;28;20068;-73
2022/04/17 04:41:35;;;;;;;6.72;4.43;;;;;;;;;;4963571;28;20077;-71
2022/04/17 04:44:20;;;;;;;6.82;3.90;;;;;;;;;;4986019;28;20097;-71
2022/04/17 04:47:05;;;;;;;8.80;5.30;;;;;;;;;;4973985;28;20030;-70
2022/04/17 04:49:51;;;;;;;7.15;3.65;;;;;;;;;;4996804;28;20030;-71
2022/04/17 04:52:36;;;;;;;6.53;4.10;;;;;;;;;;5003985;28;20030;-71
2022/04/17 04:55:22;;;;;;;8.00;4.47;;;;;;;;;;4977392;28;20273;-71
2022/04/17 04:58:07;;;;;;;6.28;3.83;;;;;;;;;;4988203;28;20025;-71
2022/04/17 05:00:52;;;;;;;7.47;3.90;;;;;;;;;;4981891;28;20026;-70
2022/04/17 05:03:38;;;;;;;7.53;3.90;;;;;;;;;;4990675;28;20497;-73
2022/04/17 05:06:23;;;;;;;9.32;4.25;;;;;;;;;;5007187;28;20030;-70
2022/04/17 05:09:08;;;;;;;7.10;3.95;;;;;;;;;;4976733;28;20469;-71
2022/04/17 05:11:53;;;;;;;5.13;3.42;;;;;;;;;;4976488;28;20037;-74
2022/04/17 05:14:41;;;;;;;6.05;3.80;;;;;;;;;;4989462;28;20019;-73
2022/04/17 05:17:26;;;;;;;6.40;3.85;;;;;;;;;;4999623;28;20021;-73
2022/04/17 05:20:15;;;;;;;7.32;4.20;;;;;;;;;;5005061;28;20052;-74
2022/04/17 05:26:05;;;;;;;7.63;4.07;;;;;;;;;;5004206;28;20026;-74
2022/04/17 05:28:51;;;;;;;9.10;4.00;;;;;;;;;;4995374;28;20029;-76
2022/04/17 05:31:36;;;;;;;8.90;4.28;;;;;;;;;;5012840;28;20065;-74
2022/04/17 05:34:21;;;;;;;8.85;3.75;;;;;;;;;;5005274;28;20026;-77
2022/04/17 05:37:07;;;;;;;7.25;3.58;;;;;;;;;;4989720;28;20022;-75
2022/04/17 05:39:53;;;;;;;5.68;3.55;;;;;;;;;;4983693;28;20030;-74
2022/04/17 05:42:38;;;;;;;6.00;3.60;;;;;;;;;;4984651;28;20043;-72
2022/04/17 05:45:23;;;;;;;8.45;3.92;;;;;;;;;;4996099;28;20019;-71
2022/04/17 05:48:11;;;;;;;6.90;3.88;;;;;;;;;;5003925;28;20764;-73
2022/04/17 05:50:57;;;;;;;6.03;3.85;;;;;;;;;;4978687;28;20045;-73
2022/04/17 05:53:42;;;;;;;7.82;4.10;;;;;;;;;;4981362;28;20041;-72
2022/04/17 05:56:28;;;;;;;8.27;4.38;;;;;;;;;;5002058;28;20030;-71
2022/04/17 05:59:13;;;;;;;5.45;3.75;;;;;;;;;;4988222;28;20435;-72
2022/04/17 06:01:58;;;;;;;5.60;3.78;;;;;;;;;;5008916;28;20036;-69
2022/04/17 06:04:44;;;;;;;6.60;4.10;;;;;;;;;;4982718;28;20105;-75
2022/04/17 06:07:29;;;;;;;6.07;3.70;;;;;;;;;;4989460;28;20385;-73
2022/04/17 06:10:14;;;;;;;6.15;3.67;;;;;;;;;;4973476;28;20552;-72
2022/04/17 06:13:00;;;;;;;5.03;3.30;;;;;;;;;;4962098;28;20021;-71
2022/04/17 06:15:45;;;;;;;6.90;3.83;;;;;;;;;;4980831;28;20034;-72
2022/04/17 06:18:30;;;;;;;5.70;3.72;;;;;;;;;;4985153;28;20089;-70
2022/04/17 06:21:18;;;;;;;6.55;3.83;;;;;;;;;;4983077;28;20069;-72
2022/04/17 06:24:03;;;;;;;5.75;3.70;;;;;;;;;;4974004;28;20074;-71
2022/04/17 06:26:48;;;;;;;4.70;3.13;;;;;;;;;;4975268;28;20070;-71
2022/04/17 06:29:35;;;;;;;5.07;3.63;;;;;;;;;;4990280;28;20033;-72
2022/04/17 06:32:20;;;;;;;4.10;3.03;;;;;;;;;;4983364;28;20022;-74
2022/04/17 06:35:06;;;;;;;4.75;3.38;;;;;;;;;;5006898;28;20113;-72
2022/04/17 06:37:51;;;;;;;5.70;3.28;;;;;;;;;;4993296;28;20026;-73
2022/04/17 06:40:37;;;;;;;4.32;2.40;;;;;;;;;;4985839;28;20425;-73
2022/04/17 06:43:22;;;;;;;4.95;3.13;;;;;;;;;;4996220;28;20043;-73
2022/04/17 06:46:08;;;;;;;6.10;3.33;;;;;;;;;;4997572;28;20029;-72
2022/04/17 06:48:54;;;;;;;4.80;3.20;;;;;;;;;;4985039;28;20041;-73
2022/04/17 06:51:39;;;;;;;5.25;3.00;;;;;;;;;;4992551;28;20096;-73
2022/04/17 06:54:24;;;;;;;5.32;2.70;;;;;;;;;;4990879;28;20109;-73
2022/04/17 06:57:09;;;;;;;6.95;2.85;;;;;;;;;;5008991;28;20405;-79
2022/04/17 06:59:54;;;;;;;5.03;2.70;;;;;;;;;;5006145;28;20014;-71
2022/04/17 07:02:41;;;;;;;4.50;2.75;;;;;;;;;;5005001;28;20034;-70
2022/04/17 07:05:26;;;;;;;6.32;2.72;;;;;;;;;;5006159;28;20030;-70
2022/04/17 07:08:11;;;;;;;4.13;2.60;;;;;;;;;;4993989;28;20101;-69
2022/04/17 07:10:56;;;;;;;4.22;2.80;;;;;;;;;;4994433;28;20028;-70
2022/04/17 07:13:42;;;;;;;4.50;2.70;;;;;;;;;;4978590;28;20065;-74
2022/04/17 07:16:27;;;;;;;4.70;2.55;;;;;;;;;;4990201;28;20145;-70
2022/04/17 07:19:15;;;;;;;3.13;2.53;;;;;;;;;;4986547;28;20062;-74
2022/04/17 07:22:00;;;;;;;3.45;2.58;;;;;;;;;;4996148;28;20543;-74
2022/04/17 07:24:51;;;;;;;5.35;3.08;;;;;;;;;;5011713;28;20450;-74
2022/04/17 07:27:41;;;;;;;3.35;2.53;;;;;;;;;;4982997;28;20027;-73
2022/04/17 07:30:28;;;;;;;4.93;2.35;;;;;;;;;;4980750;28;20498;-76
2022/04/17 07:33:14;;;;;;;3.22;2.10;;;;;;;;;;5016460;28;20026;-77
2022/04/17 07:36:00;;;;;;;2.60;2.20;;;;;;;;;;5005084;28;20030;-70
2022/04/17 07:38:45;;;;;;;6.57;2.38;;;;;;;;;;5005051;28;20545;-69
2022/04/17 07:41:30;;;;;;;4.20;2.22;;;;;;;;;;4978200;28;20026;-69
2022/04/17 07:44:15;;;;;;;3.88;2.30;;;;;;;;;;4990192;28;20042;-70
2022/04/17 07:47:01;;;;;;;2.83;2.15;;;;;;;;;;4978347;28;20421;-69
2022/04/17 07:49:46;;;;;;;3.22;2.28;;;;;;;;;;4985807;28;20140;-68
2022/04/17 07:52:31;;;;;;;2.78;1.85;;;;;;;;;;5009115;28;20030;-76
2022/04/17 07:55:17;;;;;;;5.45;2.50;;;;;;;;;;4969072;28;20039;-71
2022/04/17 07:58:12;;;;;;;3.67;2.00;;;;;;;;;;4980388;28;20109;-74
2022/04/17 08:00:58;;;;;;;3.47;2.40;;;;;;;;;;4991602;28;20034;-72
2022/04/17 08:06:29;;;;;;;5.38;2.20;;;;;;;;;;5007128;28;20433;-73
2022/04/17 08:09:14;;;;;;;4.80;2.47;;;;;;;;;;5001798;28;20485;-73
2022/04/17 08:12:01;;;;;;;7.88;3.03;;;;;;;;;;4986747;28;20034;-72
2022/04/17 08:14:46;;;;;;;2.65;2.40;;;;;;;;;;4996534;28;20026;-73
2022/04/17 08:17:32;;;;;;;5.95;2.30;;;;;;;;;;4971752;28;20033;-72
2022/04/17 08:20:17;;;;;;;3.05;2.20;;;;;;;;;;5004933;28;20050;-73
2022/04/17 08:23:02;;;;;;;5.22;2.45;;;;;;;;;;4992326;28;20054;-73
2022/04/17 08:25:48;;;;;;;5.88;2.40;;;;;;;;;;4998119;28;20046;-73
2022/04/17 08:28:34;;;;;;;5.40;2.15;;;;;;;;;;4970960;28;20030;-68
2022/04/17 08:31:19;;;;;;;4.57;2.05;;;;;;;;;;5004173;28;20022;-71
2022/04/17 08:34:04;;;;;;;2.67;2.00;;;;;;;;;;4997303;28;20065;-73
2022/04/17 08:36:49;;;;;;;4.22;2.53;;;;;;;;;;4987308;28;20421;-72
2022/04/17 08:39:35;;;;;;;3.08;2.00;;;;;;;;;;5002924;28;20033;-72
2022/04/17 08:42:20;;;;;;;3.25;2.05;;;;;;;;;;4972280;28;20042;-72
2022/04/17 08:45:10;;;;;;;3.22;2.20;;;;;;;;;;4995430;28;20028;-72
2022/04/17 08:47:55;;;;;;;3.58;2.25;;;;;;;;;;4993586;28;20407;-73
2022/04/17 08:50:40;;;;;;;6.10;2.50;;;;;;;;;;4984621;28;20441;-73
2022/04/17 08:53:27;;;;;;;4.28;2.10;;;;;;;;;;4990024;28;20503;-72
2022/04/17 08:56:12;;;;;;;3.88;2.00;;;;;;;;;;5003811;28;20117;-72
2022/04/17 08:58:58;;;;;;;2.72;1.95;;;;;;;;;;4984449;28;20478;-73
2022/04/17 09:01:44;;;;;;;2.45;2.08;;;;;;;;;;4971056;28;20029;-72
2022/04/17 09:04:29;;;;;;;3.45;2.05;;;;;;;;;;4984342;28;20371;-73
2022/04/17 09:07:14;;;;;;;4.50;2.42;;;;;;;;;;5009129;28;20420;-70
2022/04/17 09:10:00;;;;;;;6.47;2.00;;;;;;;;;;5003692;28;20210;-71
2022/04/17 09:12:46;;;;;;;2.45;2.03;;;;;;;;;;5000119;28;20492;-74
2022/04/17 09:15:35;;;;;;;5.63;2.53;;;;;;;;;;4990114;28;20030;-76
2022/04/17 09:18:20;;;;;;;6.03;2.40;;;;;;;;;;4966841;28;20406;-72
2022/04/17 09:21:06;;;;;;;4.10;1.92;;;;;;;;;;4989651;28;20046;-71
2022/04/17 09:23:51;;;;;;;3.17;2.10;;;;;;;;;;4976839;28;20291;-72
2022/04/17 09:26:36;;;;;;;3.92;1.90;;;;;;;;;;4989587;28;20032;-78
2022/04/17 09:29:23;;;;;;;3.95;1.98;;;;;;;;;;4974673;28;20455;-78
2022/04/17 09:32:10;;;;;;;4.50;1.95;;;;;;;;;;4989545;28;20022;-78
2022/04/17 09:34:56;;;;;;;4.05;2.40;;;;;;;;;;4978557;28;20490;-79
2022/04/17 09:37:41;;;;;;;3.15;1.98;;;;;;;;;;5003351;28;20077;-77
2022/04/17 09:40:27;;;;;;;3.35;1.90;;;;;;;;;;4989254;28;20037;-77
2022/04/17 09:43:14;;;;;;;2.60;1.90;;;;;;;;;;4977756;28;20065;-75
2022/04/17 09:46:00;;;;;;;2.85;1.92;;;;;;;;;;4998239;28;20390;-73
2022/04/17 09:48:45;;;;;;;3.80;2.05;;;;;;;;;;5006784;28;20022;-72
2022/04/17 09:51:32;;;;;;;5.05;2.00;;;;;;;;;;4970300;28;20035;-72
2022/04/17 09:54:17;;;;;;;2.30;1.73;;;;;;;;;;4999899;28;20050;-75
2022/04/17 09:57:03;;;;;;;5.47;2.22;;;;;;;;;;4994204;28;20476;-73
2022/04/17 09:59:48;;;;;;;5.72;2.03;;;;;;;;;;4989741;28;20034;-72
2022/04/17 10:02:35;;;;;;;5.63;1.75;;;;;;;;;;4989245;28;20277;-73
2022/04/17 10:05:21;;;;;;;2.95;2.00;;;;;;;;;;4980758;28;20027;-69
2022/04/17 10:08:06;;;;;;;2.25;1.52;;;;;;;;;;4997239;28;20114;-68
2022/04/17 10:10:52;;;;;;;3.60;2.20;;;;;;;;;;4989951;28;20113;-68
2022/04/17 10:13:38;;;;;;;5.15;2.10;;;;;;;;;;4991415;28;20080;-69
2022/04/17 10:16:24;;;;;;;3.90;1.73;;;;;;;;;;4989126;28;20034;-69
2022/04/17 10:19:13;;;;;;;4.78;2.20;;;;;;;;;;4992040;28;20065;-74
2022/04/17 10:22:01;;;;;;;2.65;1.70;;;;;;;;;;4986595;28;20038;-69
2022/04/17 10:24:54;;;;;;;2.60;1.70;;;;;;;;;;5004114;28;20096;-68
2022/04/17 10:27:42;;;;;;;2.42;1.58;;;;;;;;;;4998497;28;20041;-69
2022/04/17 10:30:37;;;;;;;2.28;1.63;;;;;;;;;;4976690;28;20033;-71
2022/04/17 10:33:30;;;;;;;3.90;1.70;;;;;;;;;;5001632;28;20181;-69
2022/04/17 10:36:27;;;;;;;4.28;2.20;;;;;;;;;;5021415;28;20096;-77
2022/04/17 10:39:20;;;;;;;4.32;2.20;;;;;;;;;;4992145;28;20022;-76
2022/04/17 10:42:09;;;;;;;2.63;2.03;;;;;;;;;;5014001;28;20035;-73
2022/04/17 10:45:04;;;;;;;3.72;2.20;;;;;;;;;;5006869;28;20034;-76
2022/04/17 10:51:13;;;;;;;3.90;2.00;;;;;;;;;;4982899;28;20397;-70
2022/04/17 10:54:13;;;;;;;4.18;1.83;;;;;;;;;;5000667;28;20113;-72
2022/04/17 10:57:00;;;;;;;3.15;1.65;;;;;;;;;;5002104;28;20126;-76
2022/04/17 10:59:45;;;;;;;4.20;1.60;;;;;;;;;;4956194;28;20038;-75
2022/04/17 11:02:30;;;;;;;3.35;1.80;;;;;;;;;;4975283;28;20113;-75
2022/04/17 11:05:59;;;;;;;3.13;1.80;;;;;;;;;;4974329;28;20023;-78
2022/04/17 11:08:47;;;;;;;3.58;2.00;;;;;;;;;;4996233;28;20444;-76
2022/04/17 11:11:34;;;;;;;6.55;2.00;;;;;;;;;;4996558;28;20092;-74
2022/04/17 11:14:21;;;;;;;4.45;1.77;;;;;;;;;;4977761;28;20121;-74
2022/04/17 11:17:08;;;;;;;2.53;1.95;;;;;;;;;;4973935;28;20027;-78
2022/04/17 11:19:57;;;;;;;5.05;2.00;;;;;;;;;;4990371;28;20548;-79
2022/04/17 11:22:43;;;;;;;;;;;;;;;;;;5009378;28;20038;-77
2022/04/17 11:25:28;;;;;;;2.58;1.70;;;;;;;;;;4989511;28;20199;-79
2022/04/17 11:28:33;;;;;;;2.40;1.73;;;;;;;;;;4998102;28;20057;-79
2022/04/17 11:31:31;;;;;;;2.72;1.75;;;;;;;;;;4978085;28;20031;-69
2022/04/17 11:34:16;;;;;;;2.67;1.70;;;;;;;;;;4982498;28;20182;-71
2022/04/17 11:37:02;;;;;;;3.10;1.70;;;;;;;;;;4996953;28;20564;-77
2022/04/17 11:39:48;;;;;;;2.63;1.80;;;;;;;;;;4992287;28;20030;-75
2022/04/17 11:42:39;;;;;;;2.67;1.70;;;;;;;;;;4983523;28;20459;-74
2022/04/17 11:45:26;;;;;;;2.47;1.90;;;;;;;;;;4995534;28;20035;-75
2022/04/17 11:48:16;;;;;;;3.17;1.52;;;;;;;;;;4993467;28;20038;-76
2022/04/17 11:51:01;;;;;;;5.10;1.90;;;;;;;;;;4992675;28;20462;-73
2022/04/17 11:53:47;;;;;;;3.05;1.60;;;;;;;;;;4972287;28;20038;-75
2022/04/17 11:56:51;;;;;;;2.45;1.52;;;;;;;;;;4991407;28;20108;-77
2022/04/17 11:59:50;;;;;;;2.35;1.80;;;;;;;;;;4959012;28;20482;-77
2022/04/17 12:02:36;;;;;;;2.33;1.70;;;;;;;;;;4974112;28;20518;-76
2022/04/17 12:05:21;;;;;;;2.60;1.63;;;;;;;;;;4991725;28;20065;-76
2022/04/17 12:08:09;;;;;;;3.40;1.40;;;;;;;;;;4976391;28;20022;-75
2022/04/17 12:10:54;;;;;;;3.22;1.80;;;;;;;;;;4991582;28;20054;-71
2022/04/17 12:13:39;;;;;;;2.67;1.77;;;;;;;;;;4998229;28;20040;-68
2022/04/17 12:16:25;;;;;;;1.98;1.77;;;;;;;;;;4988976;28;20065;-69
2022/04/17 12:19:16;;;;;;;5.18;2.20;;;;;;;;;;4990402;28;20039;-69
2022/04/17 12:22:11;;;;;;;5.63;2.25;;;;;;;;;;4974410;28;20026;-67
2022/04/17 12:24:58;;;;;;;2.70;1.73;;;;;;;;;;4971942;28;20046;-68
2022/04/17 12:27:45;;;;;;;3.40;1.85;;;;;;;;;;4977604;28;20036;-74
2022/04/17 12:30:30;;;;;;;2.53;1.77;;;;;;;;;;5004300;28;20026;-68
2022/04/17 12:33:22;;;;;;;2.92;1.70;;;;;;;;;;4985236;28;20026;-68
2022/04/17 12:36:09;;;;;;;2.92;1.98;;;;;;;;;;4971554;28;20070;-67
2022/04/17 12:38:57;;;;;;;2.53;1.60;;;;;;;;;;4986902;28;20106;-70
2022/04/17 12:41:46;;;;;;;2.58;1.65;;;;;;;;;;4984477;28;20053;-68
2022/04/17 12:44:32;;;;;;;2.95;1.77;;;;;;;;;;4990046;28;20042;-67
2022/04/17 12:47:18;;;;;;;3.47;1.92;;;;;;;;;;4989756;28;20469;-68
2022/04/17 12:50:04;;;;;;;2.35;1.60;;;;;;;;;;4984031;28;20026;-73
2022/04/17 12:52:54;;;;;;;2.08;1.88;;;;;;;;;;4971066;28;20066;-73
2022/04/17 12:55:40;;;;;;;5.10;2.63;;;;;;;;;;5006676;28;20101;-74
2022/04/17 12:58:25;;;;;;;2.90;1.90;;;;;;;;;;4990278;28;20037;-73
2022/04/17 13:01:17;;;;;;;3.42;1.60;;;;;;;;;;4988088;28;20026;-73
2022/04/17 13:04:20;;;;;;;3.50;2.00;;;;;;;;;;4970999;28;20049;-71
2022/04/17 13:07:11;;;;;;;3.55;1.98;;;;;;;;;;5015572;28;20423;-77
2022/04/17 13:09:58;;;;;;;3.20;1.70;;;;;;;;;;4985319;28;20018;-79
2022/04/17 13:12:44;;;;;;;2.78;1.42;;;;;;;;;;4957463;28;20422;-78
2022/04/17 13:15:33;;;;;;;1.88;1.70;;;;;;;;;;4997735;28;20470;-79
2022/04/17 13:18:23;;;;;;;2.45;1.55;;;;;;;;;;4977695;28;20039;-78
2022/04/17 13:21:08;;;;;;;4.07;2.05;;;;;;;;;;4987911;28;20039;-78
2022/04/17 13:23:54;;;;;;;3.47;2.10;;;;;;;;;;4983930;28;20126;-72
2022/04/17 13:26:39;;;;;;;3.67;2.53;;;;;;;;;;4989088;28;20185;-70
2022/04/17 13:29:25;;;;;;;5.30;3.60;;;;;;;;;;4983384;28;20346;-71
2022/04/17 13:32:11;;;;;;;4.88;3.08;;;;;;;;;;4985195;28;20109;-70
2022/04/17 13:34:57;;;;;;;3.67;1.88;;;;;;;;;;4970485;28;20050;-71
2022/04/17 13:40:46;;;;;;;2.83;1.88;;;;;;;;;;4986537;28;20026;-73
2022/04/17 13:43:31;;;;;;;4.20;1.85;;;;;;;;;;5009677;28;20040;-73
2022/04/17 13:46:16;;;;;;;4.03;2.10;;;;;;;;;;4983094;28;20026;-77
2022/04/17 13:49:02;;;;;;;3.83;1.83;;;;;;;;;;4973140;28;20087;-79
2022/04/17 13:51:47;;;;;;;6.63;2.30;;;;;;;;;;4971673;28;20031;-78
2022/04/17 13:54:33;;;;;;;8.02;3.00;;;;;;;;;;4989456;28;20132;-77
2022/04/17 13:57:19;;;;;;;3.97;2.10;;;;;;;;;;5000113;28;20023;-77
2022/04/17 14:00:06;;;;;;;4.13;2.33;;;;;;;;;;4983376;28;20026;-72
2022/04/17 14:02:51;;;;;;;2.70;2.00;;;;;;;;;;4998510;28;20425;-74
2022/04/17 14:05:37;;;;;;;4.97;2.03;;;;;;;;;;4995114;28;20022;-75
2022/04/17 14:08:22;;;;;;;3.83;2.10;;;;;;;;;;4977849;28;20042;-76
2022/04/17 14:11:07;;;;;;;4.35;2.15;;;;;;;;;;4973258;28;20046;-74
2022/04/17 14:13:54;;;;;;;7.47;2.75;;;;;;;;;;5000681;28;20080;-75
2022/04/17 14:16:39;;;;;;;4.88;1.60;;;;;;;;;;4970191;28;20113;-75
2022/04/17 14:19:24;;;;;;;5.25;2.47;;;;;;;;;;5000520;28;20085;-71
2022/04/17 14:22:09;;;;;;;5.63;3.72;;;;;;;;;;4958953;28;20379;-78
2022/04/17 14:24:55;;;;;;;4.22;2.75;;;;;;;;;;4990068;28;20084;-80
2022/04/17 14:27:40;;;;;;;13.90;7.13;;;;;;;;;;4977764;28;20022;-78
2022/04/17 14:30:25;;;;;;;17.65;9.40;;;;;;;;;;4983744;28;20049;-80
2022/04/17 14:33:19;;;;;;;2.80;2.17;;;;;;;;;;4995846;28;20035;-80
2022/04/17 14:36:05;;;;;;;2.35;1.50;;;;;;;;;;4975836;28;20035;-71
2022/04/17 14:38:50;;;;;;;3.25;1.80;;;;;;;;;;5004465;28;20086;-71
2022/04/17 14:41:35;;;;;;;4.45;1.80;;;;;;;;;;4993201;28;20034;-72
2022/04/17 14:44:21;;;;;;;4.00;1.58;;;;;;;;;;4976001;28;20057;-70
2022/04/17 14:47:07;;;;;;;2.22;1.48;;;;;;;;;;4972987;28;20022;-72
2022/04/17 14:49:52;;;;;;;4.13;1.60;;;;;;;;;;4987263;28;20039;-72
2022/04/17 14:52:38;;;;;;;3.90;2.15;;;;;;;;;;4973200;28;20573;-72
2022/04/17 14:55:23;;;;;;;2.75;1.75;;;;;;;;;;5001810;28;20115;-75
2022/04/17 14:58:08;;;;;;;4.90;1.67;;;;;;;;;;4988041;28;20023;-71
2022/04/17 15:00:54;;;;;;;2.92;1.77;;;;;;;;;;4987919;28;20073;-72
2022/04/17 15:03:41;;;;;;;2.33;1.42;;;;;;;;;;4978690;28;20034;-72
2022/04/17 15:06:26;;;;;;;2.42;1.77;;;;;;;;;;4982820;28;20514;-72
2022/04/17 15:09:12;;;;;;;3.88;2.00;;;;;;;;;;4989056;28;20081;-71
2022/04/17 15:11:58;;;;;;;2.58;1.83;;;;;;;;;;5024536;28;20517;-72
2022/04/17 15:14:43;;;;;;;2.47;1.63;;;;;;;;;;4989903;28;20484;-77
2022/04/17 15:17:28;;;;;;;4.82;1.88;;;;;;;;;;4989292;28;20062;-79
2022/04/17 15:20:14;;;;;;;2.63;2.22;;;;;;;;;;5003102;28;20394;-80
2022/04/17 15:22:59;;;;;;;4.25;2.65;;;;;;;;;;4972574;28;20035;-80
2022/04/17 15:25:44;;;;;;;3.08;1.70;;;;;;;;;;4979442;28;20057;-79
2022/04/17 15:28:30;;;;;;;3.38;1.65;;;;;;;;;;4998275;28;20030;-80
2022/04/17 15:31:15;;;;;;;4.05;1.60;;;;;;;;;;4991528;28;20081;-76
2022/04/17 15:34:02;;;;;;;3.88;1.73;;;;;;;;;;4978246;28;20373;-76
2022/04/17 15:36:47;;;;;;;2.38;1.27;;;;;;;;;;5000797;28;20026;-75
2022/04/17 15:39:32;;;;;;;3.17;1.90;;;;;;;;;;5005215;28;20515;-74
2022/04/17 15:42:17;;;;;;;4.65;1.60;;;;;;;;;;5003547;28;20033;-73
2022/04/17 15:48:08;;;;;;;5.25;1.85;;;;;;;;;;4989076;28;20062;-75
2022/04/17 15:50:53;;;;;;;6.05;1.60;;;;;;;;;;4991812;28;20031;-73
2022/04/17 15:53:39;;;;;;;3.97;1.40;;;;;;;;;;4985719;28;20038;-79
2022/04/17 15:56:24;;;;;;;1.90;1.35;;;;;;;;;;4973154;28;20030;-81
2022/04/17 15:59:10;;;;;;;6.10;1.77;;;;;;;;;;4977488;28;20027;-78
2022/04/17 16:01:55;;;;;;;2.33;1.50;;;;;;;;;;4987490;28;20030;-81
2022/04/17 16:04:40;;;;;;;2.65;1.55;;;;;;;;;;4991585;28;20022;-79
2022/04/17 16:07:26;;;;;;;5.60;2.10;;;;;;;;;;4990788;28;20096;-79
2022/04/17 16:10:13;;;;;;;7.03;4.32;;;;;;;;;;4976182;28;20030;-70
2022/04/17 16:12:59;;;;;;;14.57;7.28;;;;;;;;;;5004738;28;20065;-72
2022/04/17 16:15:44;;;;;;;6.57;2.88;;;;;;;;;;4977159;28;20030;-71
2022/04/17 16:18:30;;;;;;;4.57;2.10;;;;;;;;;;5014618;28;20022;-71
2022/04/17 16:21:17;;;;;;;4.70;1.83;;;;;;;;;;4976713;28;20074;-71
2022/04/17 16:24:02;;;;;;;3.10;1.83;;;;;;;;;;4998887;28;20470;-72
2022/04/17 16:26:48;;;;;;;4.28;1.92;;;;;;;;;;4983649;28;20042;-69
2022/04/17 16:29:33;;;;;;;5.25;3.08;;;;;;;;;;5001639;28;20040;-70
2022/04/17 16:32:20;;;;;;;7.68;4.30;;;;;;;;;;4990086;28;20459;-73
2022/04/17 16:35:05;;;;;;;11.10;5.85;;;;;;;;;;4983701;28;20027;-71
2022/04/17 16:37:50;;;;;;;10.70;7.63;;;;;;;;;;4971478;28;20027;-71
2022/04/17 16:40:36;;;;;;;17.40;11.27;;;;;;;;;;4971065;28;20042;-70
2022/04/17 16:43:21;;;;;;;16.52;11.63;;;;;;;;;;4972942;28;20144;-71
2022/04/17 16:46:07;;;;;;;19.65;17.58;;;;;;;;;;4972206;28;20062;-75
2022/04/17 16:48:52;;;;;;;5.03;2.75;;;;;;;;;;4998105;28;20382;-72
2022/04/17 16:51:37;;;;;;;8.13;4.30;;;;;;;;;;4976402;28;20057;-71
2022/04/17 16:54:23;;;;;;;4.72;2.13;;;;;;;;;;4998893;28;20041;-73
2022/04/17 17:00:12;;;;;;;2.97;1.98;;;;;;;;;;5002833;28;20050;-72
2022/04/17 17:02:57;;;;;;;2.15;1.60;;;;;;;;;;4989859;28;20409;-69
2022/04/17 17:05:43;;;;;;;2.90;2.17;;;;;;;;;;4994263;28;20181;-76
2022/04/17 17:08:31;;;;;;;2.58;1.77;;;;;;;;;;5001846;28;20665;-73
2022/04/17 17:11:17;;;;;;;5.30;1.75;;;;;;;;;;4994649;28;20065;-73